sensor_id;sensor_type;location;lat;lon;timestamp;temperature;humidity
24614;DHT22;12760;46.296;25.290;2023-05-19T00:01:28;16.40;99.90
24614;DHT22;12760;46.296;25.290;2023-05-19T00:03:55;16.30;99.90
24614;DHT22;12760;46.296;25.290;2023-05-19T00:06:29;16.30;99.90
24614;DHT22;12760;46.296;25.290;2023-05-19T00:09:06;16.30;99.90
24614;DHT22;12760;46.296;25.290;2023-05-19T00:11:32;16.30;99.90
24614;DHT22;12760;46.296;25.290;2023-05-19T00:14:00;16.40;99.90
24614;DHT22;12760;46.296;25.290;2023-05-19T00:16:28;16.50;99.90
24614;DHT22;12760;46.296;25.290;2023-05-19T00:18:56;16.40;99.90
24614;DHT22;12760;46.296;25.290;2023-05-19T00:21:22;16.30;99.90
24614;DHT22;12760;46.296;25.290;2023-05-19T00:23:48;16.40;99.90
24614;DHT22;12760;46.296;25.290;2023-05-19T00:26:13;16.50;99.90
24614;DHT22;12760;46.296;25.290;2023-05-19T00:28:39;16.60;99.90
24614;DHT22;12760;46.296;25.290;2023-05-19T00:31:05;16.70;99.90
24614;DHT22;12760;46.296;25.290;2023-05-19T00:33:31;16.60;99.90
24614;DHT22;12760;46.296;25.290;2023-05-19T00:35:59;16.50;99.90
24614;DHT22;12760;46.296;25.290;2023-05-19T00:38:27;16.40;99.90
24614;DHT22;12760;46.296;25.290;2023-05-19T00:40:53;16.30;99.90
24614;DHT22;12760;46.296;25.290;2023-05-19T00:43:19;16.20;99.90
24614;DHT22;12760;46.296;25.290;2023-05-19T00:45:44;16.20;99.90
24614;DHT22;12760;46.296;25.290;2023-05-19T00:48:11;16.30;99.90
24614;DHT22;12760;46.296;25.290;2023-05-19T00:50:37;16.20;99.90
24614;DHT22;12760;46.296;25.290;2023-05-19T00:53:03;16.30;99.90
24614;DHT22;12760;46.296;25.290;2023-05-19T00:55:30;16.40;99.90
24614;DHT22;12760;46.296;25.290;2023-05-19T00:57:56;16.30;99.90
24614;DHT22;12760;46.296;25.290;2023-05-19T01:00:22;16.20;99.90
24614;DHT22;12760;46.296;25.290;2023-05-19T01:02:48;16.00;99.90
24614;DHT22;12760;46.296;25.290;2023-05-19T01:05:15;15.90;99.90
24614;DHT22;12760;46.296;25.290;2023-05-19T01:07:41;16.00;99.90
24614;DHT22;12760;46.296;25.290;2023-05-19T01:10:07;16.00;99.90
24614;DHT22;12760;46.296;25.290;2023-05-19T01:12:34;16.00;99.90
24614;DHT22;12760;46.296;25.290;2023-05-19T01:15:01;16.00;99.90
24614;DHT22;12760;46.296;25.290;2023-05-19T01:17:49;16.00;99.90
24614;DHT22;12760;46.296;25.290;2023-05-19T01:20:28;16.10;99.90
24614;DHT22;12760;46.296;25.290;2023-05-19T01:31:47;16.00;99.90
24614;DHT22;12760;46.296;25.290;2023-05-19T01:34:16;16.10;99.90
24614;DHT22;12760;46.296;25.290;2023-05-19T01:36:42;16.10;99.90
24614;DHT22;12760;46.296;25.290;2023-05-19T01:39:09;16.10;99.90
24614;DHT22;12760;46.296;25.290;2023-05-19T01:41:37;16.20;99.90
24614;DHT22;12760;46.296;25.290;2023-05-19T01:44:03;16.30;99.90
24614;DHT22;12760;46.296;25.290;2023-05-19T01:46:29;16.20;99.90
24614;DHT22;12760;46.296;25.290;2023-05-19T01:48:55;16.10;99.90
24614;DHT22;12760;46.296;25.290;2023-05-19T01:51:21;16.10;99.90
24614;DHT22;12760;46.296;25.290;2023-05-19T01:53:47;16.10;99.90
24614;DHT22;12760;46.296;25.290;2023-05-19T01:56:17;16.10;99.90
24614;DHT22;12760;46.296;25.290;2023-05-19T01:58:55;16.10;99.90
24614;DHT22;12760;46.296;25.290;2023-05-19T02:06:54;16.00;99.90
24614;DHT22;12760;46.296;25.290;2023-05-19T02:09:45;16.10;99.90
24614;DHT22;12760;46.296;25.290;2023-05-19T02:12:23;16.20;99.90
24614;DHT22;12760;46.296;25.290;2023-05-19T02:15:10;16.20;99.90
24614;DHT22;12760;46.296;25.290;2023-05-19T02:17:40;16.20;99.90
24614;DHT22;12760;46.296;25.290;2023-05-19T02:20:07;16.30;99.90
24614;DHT22;12760;46.296;25.290;2023-05-19T02:22:36;16.30;99.90
24614;DHT22;12760;46.296;25.290;2023-05-19T02:25:02;16.10;99.90
24614;DHT22;12760;46.296;25.290;2023-05-19T02:27:28;16.00;99.90
24614;DHT22;12760;46.296;25.290;2023-05-19T02:29:54;15.90;99.90
24614;DHT22;12760;46.296;25.290;2023-05-19T02:32:20;15.80;99.90
24614;DHT22;12760;46.296;25.290;2023-05-19T02:34:46;15.70;99.90
24614;DHT22;12760;46.296;25.290;2023-05-19T02:37:15;15.80;99.90
24614;DHT22;12760;46.296;25.290;2023-05-19T02:39:42;15.90;99.90
24614;DHT22;12760;46.296;25.290;2023-05-19T02:42:08;16.00;99.90
24614;DHT22;12760;46.296;25.290;2023-05-19T02:44:35;16.00;99.90
24614;DHT22;12760;46.296;25.290;2023-05-19T02:47:00;16.00;99.90
24614;DHT22;12760;46.296;25.290;2023-05-19T02:49:27;16.00;99.90
24614;DHT22;12760;46.296;25.290;2023-05-19T02:51:55;15.90;99.90
24614;DHT22;12760;46.296;25.290;2023-05-19T02:54:21;16.00;99.90
24614;DHT22;12760;46.296;25.290;2023-05-19T02:56:47;16.00;99.90
24614;DHT22;12760;46.296;25.290;2023-05-19T02:59:13;16.00;99.90
24614;DHT22;12760;46.296;25.290;2023-05-19T03:01:38;16.00;99.90
24614;DHT22;12760;46.296;25.290;2023-05-19T03:04:04;16.00;99.90
24614;DHT22;12760;46.296;25.290;2023-05-19T03:06:30;16.00;99.90
24614;DHT22;12760;46.296;25.290;2023-05-19T03:08:57;16.10;99.90
24614;DHT22;12760;46.296;25.290;2023-05-19T03:11:23;15.90;99.90
24614;DHT22;12760;46.296;25.290;2023-05-19T03:13:49;15.70;99.90
24614;DHT22;12760;46.296;25.290;2023-05-19T03:16:14;15.70;99.90
24614;DHT22;12760;46.296;25.290;2023-05-19T03:18:41;15.70;99.90
24614;DHT22;12760;46.296;25.290;2023-05-19T03:21:07;15.80;99.90
24614;DHT22;12760;46.296;25.290;2023-05-19T03:23:33;15.80;99.90
24614;DHT22;12760;46.296;25.290;2023-05-19T03:25:58;15.70;99.90
24614;DHT22;12760;46.296;25.290;2023-05-19T03:28:25;15.80;99.90
24614;DHT22;12760;46.296;25.290;2023-05-19T03:30:53;15.90;99.90
24614;DHT22;12760;46.296;25.290;2023-05-19T03:33:19;15.90;99.90
24614;DHT22;12760;46.296;25.290;2023-05-19T03:35:45;15.90;99.90
24614;DHT22;12760;46.296;25.290;2023-05-19T03:38:11;15.90;99.90
24614;DHT22;12760;46.296;25.290;2023-05-19T03:40:37;15.80;99.90
24614;DHT22;12760;46.296;25.290;2023-05-19T03:43:02;15.70;99.90
24614;DHT22;12760;46.296;25.290;2023-05-19T03:45:28;15.80;99.90
24614;DHT22;12760;46.296;25.290;2023-05-19T03:47:54;15.80;99.90
24614;DHT22;12760;46.296;25.290;2023-05-19T03:50:21;15.80;99.90
24614;DHT22;12760;46.296;25.290;2023-05-19T03:52:47;15.90;99.90
24614;DHT22;12760;46.296;25.290;2023-05-19T03:55:13;15.90;99.90
24614;DHT22;12760;46.296;25.290;2023-05-19T03:57:44;15.90;99.90
24614;DHT22;12760;46.296;25.290;2023-05-19T04:00:10;15.90;99.90
24614;DHT22;12760;46.296;25.290;2023-05-19T04:02:36;15.80;99.90
24614;DHT22;12760;46.296;25.290;2023-05-19T04:05:02;15.80;99.90
24614;DHT22;12760;46.296;25.290;2023-05-19T04:07:30;15.70;99.90
24614;DHT22;12760;46.296;25.290;2023-05-19T04:09:56;15.70;99.90
24614;DHT22;12760;46.296;25.290;2023-05-19T04:12:21;15.60;99.90
24614;DHT22;12760;46.296;25.290;2023-05-19T04:14:47;15.70;99.90
24614;DHT22;12760;46.296;25.290;2023-05-19T04:17:13;15.80;99.90
24614;DHT22;12760;46.296;25.290;2023-05-19T04:19:39;15.90;99.90
24614;DHT22;12760;46.296;25.290;2023-05-19T04:22:04;15.80;99.90
24614;DHT22;12760;46.296;25.290;2023-05-19T04:24:30;15.80;99.90
24614;DHT22;12760;46.296;25.290;2023-05-19T04:26:57;15.90;99.90
24614;DHT22;12760;46.296;25.290;2023-05-19T04:29:27;15.90;99.90
24614;DHT22;12760;46.296;25.290;2023-05-19T04:31:54;16.00;99.90
24614;DHT22;12760;46.296;25.290;2023-05-19T04:34:20;16.00;99.90
24614;DHT22;12760;46.296;25.290;2023-05-19T04:36:46;16.00;99.90
24614;DHT22;12760;46.296;25.290;2023-05-19T04:39:12;15.90;99.90
24614;DHT22;12760;46.296;25.290;2023-05-19T04:41:39;15.80;99.90
24614;DHT22;12760;46.296;25.290;2023-05-19T04:44:07;15.90;99.90
24614;DHT22;12760;46.296;25.290;2023-05-19T04:46:34;15.90;99.90
24614;DHT22;12760;46.296;25.290;2023-05-19T04:49:00;15.90;99.90
24614;DHT22;12760;46.296;25.290;2023-05-19T04:51:27;16.00;99.90
24614;DHT22;12760;46.296;25.290;2023-05-19T04:53:56;16.10;99.90
24614;DHT22;12760;46.296;25.290;2023-05-19T04:56:22;16.10;99.90
24614;DHT22;12760;46.296;25.290;2023-05-19T04:58:48;16.20;99.90
24614;DHT22;12760;46.296;25.290;2023-05-19T05:01:14;16.20;99.90
24614;DHT22;12760;46.296;25.290;2023-05-19T05:03:40;16.20;99.90
24614;DHT22;12760;46.296;25.290;2023-05-19T05:06:09;16.30;99.90
24614;DHT22;12760;46.296;25.290;2023-05-19T05:08:36;16.30;99.90
24614;DHT22;12760;46.296;25.290;2023-05-19T05:11:04;16.30;99.90
24614;DHT22;12760;46.296;25.290;2023-05-19T05:13:30;16.30;99.90
24614;DHT22;12760;46.296;25.290;2023-05-19T05:15:56;16.30;99.90
24614;DHT22;12760;46.296;25.290;2023-05-19T05:18:23;16.40;99.90
24614;DHT22;12760;46.296;25.290;2023-05-19T05:20:49;16.50;99.90
24614;DHT22;12760;46.296;25.290;2023-05-19T05:23:15;16.60;99.90
24614;DHT22;12760;46.296;25.290;2023-05-19T05:25:41;16.70;99.90
24614;DHT22;12760;46.296;25.290;2023-05-19T05:28:07;16.80;99.90
24614;DHT22;12760;46.296;25.290;2023-05-19T05:30:33;16.80;99.90
24614;DHT22;12760;46.296;25.290;2023-05-19T05:33:00;16.90;99.90
24614;DHT22;12760;46.296;25.290;2023-05-19T05:35:26;16.70;99.90
24614;DHT22;12760;46.296;25.290;2023-05-19T05:37:52;16.80;99.90
24614;DHT22;12760;46.296;25.290;2023-05-19T05:40:18;16.90;99.90
24614;DHT22;12760;46.296;25.290;2023-05-19T05:42:44;16.90;99.90
24614;DHT22;12760;46.296;25.290;2023-05-19T05:45:10;17.00;99.90
24614;DHT22;12760;46.296;25.290;2023-05-19T05:47:36;17.00;99.90
24614;DHT22;12760;46.296;25.290;2023-05-19T05:50:07;17.00;99.90
24614;DHT22;12760;46.296;25.290;2023-05-19T05:52:35;17.10;99.90
24614;DHT22;12760;46.296;25.290;2023-05-19T05:55:02;17.40;99.90
24614;DHT22;12760;46.296;25.290;2023-05-19T05:57:28;17.80;99.90
24614;DHT22;12760;46.296;25.290;2023-05-19T05:59:55;18.10;99.90
24614;DHT22;12760;46.296;25.290;2023-05-19T06:02:21;18.40;99.90
24614;DHT22;12760;46.296;25.290;2023-05-19T06:04:47;18.50;99.90
24614;DHT22;12760;46.296;25.290;2023-05-19T06:07:13;18.50;99.90
24614;DHT22;12760;46.296;25.290;2023-05-19T06:09:38;18.50;99.90
24614;DHT22;12760;46.296;25.290;2023-05-19T06:12:04;18.40;99.90
24614;DHT22;12760;46.296;25.290;2023-05-19T06:14:31;18.50;99.90
24614;DHT22;12760;46.296;25.290;2023-05-19T06:16:56;18.40;99.90
24614;DHT22;12760;46.296;25.290;2023-05-19T06:19:22;18.30;99.90
24614;DHT22;12760;46.296;25.290;2023-05-19T06:21:50;18.40;99.90
24614;DHT22;12760;46.296;25.290;2023-05-19T06:24:16;18.60;99.90
24614;DHT22;12760;46.296;25.290;2023-05-19T06:26:41;18.90;99.90
24614;DHT22;12760;46.296;25.290;2023-05-19T06:29:07;19.20;99.90
24614;DHT22;12760;46.296;25.290;2023-05-19T06:31:33;19.50;99.90
24614;DHT22;12760;46.296;25.290;2023-05-19T06:33:59;19.70;99.90
24614;DHT22;12760;46.296;25.290;2023-05-19T06:36:24;19.90;99.90
24614;DHT22;12760;46.296;25.290;2023-05-19T06:38:50;20.00;99.90
24614;DHT22;12760;46.296;25.290;2023-05-19T06:41:16;19.90;99.90
24614;DHT22;12760;46.296;25.290;2023-05-19T06:43:42;20.00;99.90
24614;DHT22;12760;46.296;25.290;2023-05-19T06:46:07;20.20;99.90
24614;DHT22;12760;46.296;25.290;2023-05-19T06:48:33;20.20;99.90
24614;DHT22;12760;46.296;25.290;2023-05-19T06:50:59;20.30;99.90
24614;DHT22;12760;46.296;25.290;2023-05-19T06:53:25;20.50;99.90
24614;DHT22;12760;46.296;25.290;2023-05-19T06:55:50;20.70;99.90
24614;DHT22;12760;46.296;25.290;2023-05-19T06:58:16;20.80;99.90
24614;DHT22;12760;46.296;25.290;2023-05-19T07:00:42;20.90;99.90
24614;DHT22;12760;46.296;25.290;2023-05-19T07:03:08;21.10;99.90
24614;DHT22;12760;46.296;25.290;2023-05-19T07:05:34;21.30;99.90
24614;DHT22;12760;46.296;25.290;2023-05-19T07:08:00;21.50;99.90
24614;DHT22;12760;46.296;25.290;2023-05-19T07:10:26;21.50;99.90
24614;DHT22;12760;46.296;25.290;2023-05-19T07:12:52;21.50;99.90
24614;DHT22;12760;46.296;25.290;2023-05-19T07:15:18;21.70;99.90
24614;DHT22;12760;46.296;25.290;2023-05-19T07:17:43;21.70;99.90
24614;DHT22;12760;46.296;25.290;2023-05-19T07:20:09;21.80;99.90
24614;DHT22;12760;46.296;25.290;2023-05-19T07:22:36;21.80;99.90
24614;DHT22;12760;46.296;25.290;2023-05-19T07:25:03;22.00;99.90
24614;DHT22;12760;46.296;25.290;2023-05-19T07:27:28;22.30;99.90
24614;DHT22;12760;46.296;25.290;2023-05-19T07:29:54;22.40;99.90
24614;DHT22;12760;46.296;25.290;2023-05-19T07:32:20;22.40;99.90
24614;DHT22;12760;46.296;25.290;2023-05-19T07:34:45;22.50;99.90
24614;DHT22;12760;46.296;25.290;2023-05-19T07:37:11;22.70;99.90
24614;DHT22;12760;46.296;25.290;2023-05-19T07:39:37;22.50;99.90
24614;DHT22;12760;46.296;25.290;2023-05-19T07:42:03;22.60;99.90
24614;DHT22;12760;46.296;25.290;2023-05-19T07:44:29;22.80;99.90
24614;DHT22;12760;46.296;25.290;2023-05-19T07:46:56;23.10;99.90
24614;DHT22;12760;46.296;25.290;2023-05-19T07:49:22;23.20;99.90
24614;DHT22;12760;46.296;25.290;2023-05-19T07:51:47;23.40;99.90
24614;DHT22;12760;46.296;25.290;2023-05-19T07:54:13;23.50;99.90
24614;DHT22;12760;46.296;25.290;2023-05-19T07:56:39;23.70;99.90
24614;DHT22;12760;46.296;25.290;2023-05-19T07:59:05;24.00;99.90
24614;DHT22;12760;46.296;25.290;2023-05-19T08:01:32;24.10;99.90
24614;DHT22;12760;46.296;25.290;2023-05-19T08:03:58;24.30;99.90
24614;DHT22;12760;46.296;25.290;2023-05-19T08:06:24;24.30;99.90
24614;DHT22;12760;46.296;25.290;2023-05-19T08:08:50;24.40;99.90
24614;DHT22;12760;46.296;25.290;2023-05-19T08:11:16;24.20;99.90
24614;DHT22;12760;46.296;25.290;2023-05-19T08:13:42;24.00;99.90
24614;DHT22;12760;46.296;25.290;2023-05-19T08:16:08;24.20;99.90
24614;DHT22;12760;46.296;25.290;2023-05-19T08:18:34;24.30;99.90
24614;DHT22;12760;46.296;25.290;2023-05-19T08:20:59;24.20;99.90
24614;DHT22;12760;46.296;25.290;2023-05-19T08:23:25;24.10;99.90
24614;DHT22;12760;46.296;25.290;2023-05-19T08:25:51;23.90;99.90
24614;DHT22;12760;46.296;25.290;2023-05-19T08:28:17;23.90;99.90
24614;DHT22;12760;46.296;25.290;2023-05-19T08:30:43;24.10;99.90
24614;DHT22;12760;46.296;25.290;2023-05-19T08:33:08;24.00;99.90
24614;DHT22;12760;46.296;25.290;2023-05-19T08:35:34;23.80;99.90
24614;DHT22;12760;46.296;25.290;2023-05-19T08:38:00;23.80;99.90
24614;DHT22;12760;46.296;25.290;2023-05-19T08:40:27;23.70;99.90
24614;DHT22;12760;46.296;25.290;2023-05-19T08:42:56;23.50;99.40
24614;DHT22;12760;46.296;25.290;2023-05-19T08:45:21;23.30;99.90
24614;DHT22;12760;46.296;25.290;2023-05-19T08:47:48;23.30;99.90
24614;DHT22;12760;46.296;25.290;2023-05-19T08:50:28;23.20;99.90
24614;DHT22;12760;46.296;25.290;2023-05-19T08:56:00;23.00;99.90
24614;DHT22;12760;46.296;25.290;2023-05-19T08:58:29;22.80;99.90
24614;DHT22;12760;46.296;25.290;2023-05-19T09:00:55;22.80;99.90
24614;DHT22;12760;46.296;25.290;2023-05-19T09:03:22;22.90;99.90
24614;DHT22;12760;46.296;25.290;2023-05-19T09:05:50;22.90;99.90
24614;DHT22;12760;46.296;25.290;2023-05-19T09:08:16;23.00;99.90
24614;DHT22;12760;46.296;25.290;2023-05-19T09:10:43;23.00;99.90
24614;DHT22;12760;46.296;25.290;2023-05-19T09:13:08;23.00;99.90
24614;DHT22;12760;46.296;25.290;2023-05-19T09:15:34;23.00;99.90
24614;DHT22;12760;46.296;25.290;2023-05-19T09:18:13;23.00;99.90
24614;DHT22;12760;46.296;25.290;2023-05-19T09:20:43;23.10;99.90
24614;DHT22;12760;46.296;25.290;2023-05-19T09:23:14;23.00;99.90
24614;DHT22;12760;46.296;25.290;2023-05-19T09:25:47;23.20;99.90
24614;DHT22;12760;46.296;25.290;2023-05-19T09:28:13;23.00;99.90
24614;DHT22;12760;46.296;25.290;2023-05-19T09:30:40;23.00;99.90
24614;DHT22;12760;46.296;25.290;2023-05-19T09:33:05;22.90;99.90
24614;DHT22;12760;46.296;25.290;2023-05-19T09:35:34;22.90;99.90
24614;DHT22;12760;46.296;25.290;2023-05-19T09:38:00;23.00;99.90
24614;DHT22;12760;46.296;25.290;2023-05-19T09:40:30;22.90;99.90
24614;DHT22;12760;46.296;25.290;2023-05-19T09:42:57;23.00;99.90
24614;DHT22;12760;46.296;25.290;2023-05-19T09:45:22;23.00;99.90
24614;DHT22;12760;46.296;25.290;2023-05-19T09:47:52;22.90;99.90
24614;DHT22;12760;46.296;25.290;2023-05-19T09:50:18;22.80;99.90
24614;DHT22;12760;46.296;25.290;2023-05-19T09:52:43;22.80;99.90
24614;DHT22;12760;46.296;25.290;2023-05-19T09:55:11;22.90;99.90
24614;DHT22;12760;46.296;25.290;2023-05-19T09:57:38;23.00;99.90
24614;DHT22;12760;46.296;25.290;2023-05-19T10:00:09;23.00;99.90
24614;DHT22;12760;46.296;25.290;2023-05-19T10:02:46;23.00;99.90
24614;DHT22;12760;46.296;25.290;2023-05-19T10:05:13;23.00;99.90
24614;DHT22;12760;46.296;25.290;2023-05-19T10:07:49;23.10;99.90
24614;DHT22;12760;46.296;25.290;2023-05-19T10:10:16;23.10;99.90
24614;DHT22;12760;46.296;25.290;2023-05-19T10:12:42;23.20;99.90
24614;DHT22;12760;46.296;25.290;2023-05-19T10:15:13;23.10;99.90
24614;DHT22;12760;46.296;25.290;2023-05-19T10:17:40;23.10;99.90
24614;DHT22;12760;46.296;25.290;2023-05-19T10:20:14;23.10;99.90
24614;DHT22;12760;46.296;25.290;2023-05-19T10:22:44;23.10;99.90
24614;DHT22;12760;46.296;25.290;2023-05-19T10:25:11;23.10;99.90
24614;DHT22;12760;46.296;25.290;2023-05-19T10:28:10;23.10;99.90
24614;DHT22;12760;46.296;25.290;2023-05-19T10:30:40;23.20;99.90
24614;DHT22;12760;46.296;25.290;2023-05-19T10:33:09;23.30;99.90
24614;DHT22;12760;46.296;25.290;2023-05-19T10:38:31;23.60;99.90
24614;DHT22;12760;46.296;25.290;2023-05-19T10:46:16;24.20;99.90
24614;DHT22;12760;46.296;25.290;2023-05-19T10:48:45;24.20;99.90
24614;DHT22;12760;46.296;25.290;2023-05-19T10:51:11;24.30;99.90
24614;DHT22;12760;46.296;25.290;2023-05-19T10:53:40;24.30;99.90
24614;DHT22;12760;46.296;25.290;2023-05-19T10:56:11;24.20;99.90
24614;DHT22;12760;46.296;25.290;2023-05-19T10:58:38;24.20;99.90
24614;DHT22;12760;46.296;25.290;2023-05-19T11:01:14;24.40;99.90
24614;DHT22;12760;46.296;25.290;2023-05-19T11:03:54;24.50;99.90
24614;DHT22;12760;46.296;25.290;2023-05-19T11:06:25;24.80;99.90
24614;DHT22;12760;46.296;25.290;2023-05-19T11:09:00;24.80;99.80
24614;DHT22;12760;46.296;25.290;2023-05-19T11:14:11;25.00;98.90
24614;DHT22;12760;46.296;25.290;2023-05-19T11:16:39;25.00;98.80
24614;DHT22;12760;46.296;25.290;2023-05-19T11:19:07;25.00;98.20
24614;DHT22;12760;46.296;25.290;2023-05-19T11:21:50;25.10;99.00
24614;DHT22;12760;46.296;25.290;2023-05-19T11:27:34;25.50;96.50
24614;DHT22;12760;46.296;25.290;2023-05-19T11:32:31;25.50;97.40
24614;DHT22;12760;46.296;25.290;2023-05-19T11:34:58;25.70;96.30
24614;DHT22;12760;46.296;25.290;2023-05-19T11:37:25;25.80;95.30
24614;DHT22;12760;46.296;25.290;2023-05-19T11:39:51;25.80;96.20
24614;DHT22;12760;46.296;25.290;2023-05-19T11:42:17;25.90;95.40
24614;DHT22;12760;46.296;25.290;2023-05-19T11:44:44;25.80;96.50
24614;DHT22;12760;46.296;25.290;2023-05-19T11:47:11;25.80;97.20
24614;DHT22;12760;46.296;25.290;2023-05-19T11:49:37;25.80;97.30
24614;DHT22;12760;46.296;25.290;2023-05-19T11:52:03;25.70;96.90
24614;DHT22;12760;46.296;25.290;2023-05-19T11:54:33;25.70;97.10
24614;DHT22;12760;46.296;25.290;2023-05-19T11:57:04;25.60;97.40
24614;DHT22;12760;46.296;25.290;2023-05-19T11:59:32;25.60;97.80
24614;DHT22;12760;46.296;25.290;2023-05-19T12:02:00;25.60;97.10
24614;DHT22;12760;46.296;25.290;2023-05-19T12:04:28;25.50;98.10
24614;DHT22;12760;46.296;25.290;2023-05-19T12:06:53;25.40;98.50
24614;DHT22;12760;46.296;25.290;2023-05-19T12:09:22;25.40;98.80
24614;DHT22;12760;46.296;25.290;2023-05-19T12:11:49;25.40;97.70
24614;DHT22;12760;46.296;25.290;2023-05-19T12:14:16;25.30;97.20
24614;DHT22;12760;46.296;25.290;2023-05-19T12:16:42;25.20;97.10
24614;DHT22;12760;46.296;25.290;2023-05-19T12:19:08;25.10;97.20
24614;DHT22;12760;46.296;25.290;2023-05-19T12:21:34;25.10;97.10
24614;DHT22;12760;46.296;25.290;2023-05-19T12:24:00;25.00;96.80
24614;DHT22;12760;46.296;25.290;2023-05-19T12:26:26;24.60;97.00
24614;DHT22;12760;46.296;25.290;2023-05-19T12:28:52;24.70;96.40
24614;DHT22;12760;46.296;25.290;2023-05-19T12:31:19;24.70;96.80
24614;DHT22;12760;46.296;25.290;2023-05-19T12:33:48;24.80;97.00
24614;DHT22;12760;46.296;25.290;2023-05-19T12:36:17;24.80;96.00
24614;DHT22;12760;46.296;25.290;2023-05-19T12:38:43;24.80;96.00
24614;DHT22;12760;46.296;25.290;2023-05-19T12:41:13;25.00;93.60
24614;DHT22;12760;46.296;25.290;2023-05-19T12:43:39;25.20;93.90
24614;DHT22;12760;46.296;25.290;2023-05-19T12:46:12;25.40;93.40
24614;DHT22;12760;46.296;25.290;2023-05-19T12:48:45;25.40;92.40
24614;DHT22;12760;46.296;25.290;2023-05-19T12:51:21;25.40;93.00
24614;DHT22;12760;46.296;25.290;2023-05-19T12:53:48;25.50;92.80
24614;DHT22;12760;46.296;25.290;2023-05-19T12:56:14;25.70;91.30
24614;DHT22;12760;46.296;25.290;2023-05-19T12:58:41;25.80;91.20
24614;DHT22;12760;46.296;25.290;2023-05-19T13:01:14;26.00;87.50
24614;DHT22;12760;46.296;25.290;2023-05-19T13:03:40;26.20;80.60
24614;DHT22;12760;46.296;25.290;2023-05-19T13:06:06;26.20;81.90
24614;DHT22;12760;46.296;25.290;2023-05-19T13:08:32;26.40;80.50
24614;DHT22;12760;46.296;25.290;2023-05-19T13:10:58;26.30;78.40
24614;DHT22;12760;46.296;25.290;2023-05-19T13:13:23;26.30;84.10
24614;DHT22;12760;46.296;25.290;2023-05-19T13:15:49;26.10;84.70
24614;DHT22;12760;46.296;25.290;2023-05-19T13:18:15;26.10;83.30
24614;DHT22;12760;46.296;25.290;2023-05-19T13:20:43;26.10;84.40
24614;DHT22;12760;46.296;25.290;2023-05-19T13:23:10;26.10;81.70
24614;DHT22;12760;46.296;25.290;2023-05-19T13:25:36;26.20;84.60
24614;DHT22;12760;46.296;25.290;2023-05-19T13:28:02;26.30;81.00
24614;DHT22;12760;46.296;25.290;2023-05-19T13:30:33;26.40;82.10
24614;DHT22;12760;46.296;25.290;2023-05-19T13:32:59;26.40;80.00
24614;DHT22;12760;46.296;25.290;2023-05-19T13:35:25;26.60;79.50
24614;DHT22;12760;46.296;25.290;2023-05-19T13:37:51;26.50;76.20
24614;DHT22;12760;46.296;25.290;2023-05-19T13:40:17;26.50;78.00
24614;DHT22;12760;46.296;25.290;2023-05-19T13:42:43;26.40;77.00
24614;DHT22;12760;46.296;25.290;2023-05-19T13:45:09;26.40;79.30
24614;DHT22;12760;46.296;25.290;2023-05-19T13:47:36;26.40;90.50
24614;DHT22;12760;46.296;25.290;2023-05-19T13:50:03;26.40;90.50
24614;DHT22;12760;46.296;25.290;2023-05-19T13:52:29;26.30;90.70
24614;DHT22;12760;46.296;25.290;2023-05-19T13:54:54;26.20;87.90
24614;DHT22;12760;46.296;25.290;2023-05-19T13:57:24;26.20;85.20
24614;DHT22;12760;46.296;25.290;2023-05-19T13:59:51;26.00;78.70
24614;DHT22;12760;46.296;25.290;2023-05-19T14:02:17;25.90;84.10
24614;DHT22;12760;46.296;25.290;2023-05-19T14:04:42;25.90;85.40
24614;DHT22;12760;46.296;25.290;2023-05-19T14:07:08;25.90;82.10
24614;DHT22;12760;46.296;25.290;2023-05-19T14:09:35;25.90;80.90
24614;DHT22;12760;46.296;25.290;2023-05-19T14:12:01;25.70;85.90
24614;DHT22;12760;46.296;25.290;2023-05-19T14:14:27;25.60;85.40
24614;DHT22;12760;46.296;25.290;2023-05-19T14:16:52;25.50;84.80
24614;DHT22;12760;46.296;25.290;2023-05-19T14:19:18;25.50;84.60
24614;DHT22;12760;46.296;25.290;2023-05-19T14:21:44;25.50;85.60
24614;DHT22;12760;46.296;25.290;2023-05-19T14:24:10;25.60;83.40
24614;DHT22;12760;46.296;25.290;2023-05-19T14:26:35;25.60;82.90
24614;DHT22;12760;46.296;25.290;2023-05-19T14:29:01;25.70;81.50
24614;DHT22;12760;46.296;25.290;2023-05-19T14:31:27;25.60;79.80
24614;DHT22;12760;46.296;25.290;2023-05-19T14:33:53;25.60;77.40
24614;DHT22;12760;46.296;25.290;2023-05-19T14:36:19;25.70;82.70
24614;DHT22;12760;46.296;25.290;2023-05-19T14:38:45;25.90;81.20
24614;DHT22;12760;46.296;25.290;2023-05-19T14:41:10;25.90;83.00
24614;DHT22;12760;46.296;25.290;2023-05-19T14:43:36;25.90;80.70
24614;DHT22;12760;46.296;25.290;2023-05-19T14:46:02;26.00;79.60
24614;DHT22;12760;46.296;25.290;2023-05-19T14:48:27;26.10;80.30
24614;DHT22;12760;46.296;25.290;2023-05-19T14:50:53;26.10;76.60
24614;DHT22;12760;46.296;25.290;2023-05-19T14:53:19;26.10;83.30
24614;DHT22;12760;46.296;25.290;2023-05-19T14:55:46;26.00;91.60
24614;DHT22;12760;46.296;25.290;2023-05-19T14:58:13;25.90;91.30
24614;DHT22;12760;46.296;25.290;2023-05-19T15:00:41;26.00;90.40
24614;DHT22;12760;46.296;25.290;2023-05-19T15:03:07;25.70;92.60
24614;DHT22;12760;46.296;25.290;2023-05-19T15:05:32;25.60;93.50
24614;DHT22;12760;46.296;25.290;2023-05-19T15:07:58;25.30;93.30
24614;DHT22;12760;46.296;25.290;2023-05-19T15:10:24;25.40;93.50
24614;DHT22;12760;46.296;25.290;2023-05-19T15:12:49;25.50;92.90
24614;DHT22;12760;46.296;25.290;2023-05-19T15:15:15;25.50;93.00
24614;DHT22;12760;46.296;25.290;2023-05-19T15:17:41;25.30;93.10
24614;DHT22;12760;46.296;25.290;2023-05-19T15:20:07;25.20;90.80
24614;DHT22;12760;46.296;25.290;2023-05-19T15:22:33;25.20;91.50
24614;DHT22;12760;46.296;25.290;2023-05-19T15:24:59;25.20;92.40
24614;DHT22;12760;46.296;25.290;2023-05-19T15:27:25;25.20;92.10
24614;DHT22;12760;46.296;25.290;2023-05-19T15:29:51;25.20;88.60
24614;DHT22;12760;46.296;25.290;2023-05-19T15:32:17;25.30;89.20
24614;DHT22;12760;46.296;25.290;2023-05-19T15:34:43;25.20;93.00
24614;DHT22;12760;46.296;25.290;2023-05-19T15:37:08;25.00;93.60
24614;DHT22;12760;46.296;25.290;2023-05-19T15:39:34;25.00;94.30
24614;DHT22;12760;46.296;25.290;2023-05-19T15:42:00;24.90;95.00
24614;DHT22;12760;46.296;25.290;2023-05-19T15:44:26;24.90;94.30
24614;DHT22;12760;46.296;25.290;2023-05-19T15:46:51;24.90;94.60
24614;DHT22;12760;46.296;25.290;2023-05-19T15:49:17;24.90;95.10